Champagne, Canada
Current Conditions -  °F | °C
As of 7:00 AM on Friday 19 Dec 2014 (Local Time) from CYXY Reporting Station
Light Snow Light Snow  
Wind Chill:   Ceiling: 5000
Heat Index:   Visibility: 5mi
Dew Point:   Wind: 2mph
Humidity: 79%   Direction: NA
Pressure: 29.38"   Gusts: NA
Location:  60.79°N, 136.48°W
Report Text: CYXY 191500Z VRB02KT 5SM -SN OVC050 M13/M16 A2938 RMK SC8 SLP011
Loading
Personal Weather Stations






























Interactive Weather Map New forecast layout! Learn more

10-Day Weather Forecast

Advertisements
Track Severe Weather on mobile